CPX431 Details

Departure: Louis Armstrong New Orleans International Airport (KMSY)
Arrival: Nashville International Airport (KBNA)
Route: LBY MEI IGB HRTUN CHSNE2


Current Weather Information
KMSY 190653Z 06007KT 10SM OVC250 14/06 A3025 RMK AO2 SLP246 T01440061
KBNA 190653Z 00000KT 10SM CLR 02/M05 A3039 RMK AO2 SLP291 T00171050